Elsenborn, Belgium
Current Conditions -  °F | °C
As of 2:25 AM on Sunday 23 Nov 2014 (Local Time) from EBLB Reporting Station
Scattered Clouds Scattered Clouds  
Wind Chill:   Ceiling: Unl
Heat Index:   Visibility: 6mi
Dew Point:   Wind: 9mph
Humidity: 93%   Direction: 190°S
Pressure: 30.09"   Gusts: NA
Location:  50.46°N, 6.22°E
Report Text: EBLB 230125Z AUTO 19008KT 9000 SCT160/// 08/07 Q1019 BLU
Loading
Personal Weather Stations






























Interactive Weather Map New forecast layout! Learn more

10-Day Weather Forecast

Advertisements
Track Severe Weather on mobile